Alta Loma, California
Current Conditions -  °F | °C
As of 1:53 PM on Saturday 25 Oct 2014 (Local Time) from KONT Reporting Station
Broken Clouds Broken Clouds  
Wind Chill: 30°   Ceiling: 20000
Heat Index: 30°   Visibility: 10mi
Dew Point:   Wind: 14mph
Humidity: 17%   Direction: 260°W
Pressure: 30.02"   Gusts: NA
Location:  34.12°N, 117.6°W
Report Text: KONT 252053Z 26012KT 10SM FEW090 BKN200 30/02 A3002 RMK AO2 SLP149 T03000022 56014
Loading
Personal Weather Stations






























Interactive Weather Map
Tropical Storm Tracking
New forecast layout! Learn more

10-Day Weather Forecast

Advertisements
Track Severe Weather on mobile